createdAt,value
2018-08-30T00:02:19.611Z,98348.41
2018-08-30T00:07:12.860Z,98347.85
2018-08-30T00:12:06.432Z,98342.14
2018-08-30T00:16:59.720Z,98336.12
2018-08-30T00:21:52.786Z,98330.14
2018-08-30T00:26:46.520Z,98323.85
2018-08-30T00:31:39.687Z,98332.32
2018-08-30T00:36:33.028Z,98316.34
2018-08-30T00:41:26.293Z,98317.95
2018-08-30T00:46:19.435Z,98307.94
2018-08-30T00:51:12.571Z,98316.70
2018-08-30T00:56:05.982Z,98316.38
2018-08-30T01:00:59.429Z,98326.16
2018-08-30T01:05:52.568Z,98317.02
2018-08-30T01:10:45.750Z,98315.94
2018-08-30T01:15:39.013Z,98322.92
2018-08-30T01:20:32.180Z,98312.44
2018-08-30T01:25:25.559Z,98312.41
2018-08-30T01:30:18.590Z,98307.31
2018-08-30T01:35:11.775Z,98310.48
2018-08-30T01:40:05.106Z,98305.41
2018-08-30T01:44:58.273Z,98305.89
2018-08-30T01:49:51.393Z,98306.23
2018-08-30T01:54:45.379Z,98312.66
2018-08-30T01:59:39.019Z,98302.91
2018-08-30T02:04:32.058Z,98303.14
2018-08-30T02:09:25.305Z,98307.73
2018-08-30T02:14:18.345Z,98321.92
2018-08-30T02:19:12.274Z,98302.78
2018-08-30T02:24:05.422Z,98305.93
2018-08-30T02:28:59.082Z,98319.16
2018-08-30T02:33:52.431Z,98318.81
2018-08-30T02:38:45.540Z,98319.80
2018-08-30T02:43:39.633Z,98325.50
2018-08-30T02:48:32.801Z,98314.36
2018-08-30T02:53:25.932Z,98316.45
2018-08-30T02:58:19.507Z,98317.63
2018-08-30T03:03:13.086Z,98319.53
2018-08-30T03:08:06.355Z,98336.50
2018-08-30T03:12:59.868Z,98325.88
2018-08-30T03:17:53.018Z,98322.43
2018-08-30T03:22:46.886Z,98333.36
2018-08-30T03:27:40.453Z,98335.61
2018-08-30T03:32:34.677Z,98343.05
2018-08-30T03:37:28.081Z,98340.09
2018-08-30T03:42:21.811Z,98352.69
2018-08-30T03:47:16.214Z,98358.33
2018-08-30T03:52:09.924Z,98359.88
2018-08-30T03:57:03.319Z,98365.92
2018-08-30T04:02:01.958Z,98369.02
2018-08-30T04:06:56.574Z,98370.31
2018-08-30T04:11:50.439Z,98371.68
2018-08-30T04:16:44.128Z,98376.35
2018-08-30T04:21:39.657Z,98378.25
2018-08-30T04:26:33.694Z,98379.33
2018-08-30T04:31:29.808Z,98391.83
2018-08-30T04:36:23.176Z,98384.48
2018-08-30T04:41:16.890Z,98390.89
2018-08-30T04:46:10.012Z,98388.20
2018-08-30T04:51:03.192Z,98389.25
2018-08-30T04:55:56.756Z,98391.10
2018-08-30T05:00:50.551Z,98396.10
2018-08-30T05:05:44.009Z,98390.05
2018-08-30T05:10:37.527Z,98393.65
2018-08-30T05:15:32.239Z,98397.73
2018-08-30T05:20:27.443Z,98395.03
2018-08-30T05:25:21.904Z,98388.89
2018-08-30T05:30:15.873Z,98394.59
2018-08-30T05:35:09.606Z,98392.33
2018-08-30T05:40:05.945Z,98395.15
2018-08-30T05:45:04.785Z,98396.88
2018-08-30T05:50:00.899Z,98393.15
2018-08-30T05:54:56.119Z,98396.86
2018-08-30T05:59:49.744Z,98401.70
2018-08-30T06:04:43.873Z,98399.78
2018-08-30T06:09:39.259Z,98404.30
2018-08-30T06:14:35.080Z,98401.45
2018-08-30T06:19:28.286Z,98402.90
2018-08-30T06:24:22.028Z,98402.95
2018-08-30T06:29:15.273Z,98406.93
2018-08-30T06:34:14.807Z,98411.91
2018-08-30T06:39:18.499Z,98406.72
2018-08-30T06:44:13.816Z,98408.61
2018-08-30T06:49:08.909Z,98417.13
2018-08-30T06:54:04.006Z,98419.25
2018-08-30T06:58:59.663Z,98411.44
2018-08-30T07:03:55.046Z,98411.94
2018-08-30T07:08:50.620Z,98418.48
2018-08-30T07:13:44.750Z,98414.67
2018-08-30T07:18:40.220Z,98422.34
2018-08-30T07:23:33.409Z,98420.14
2018-08-30T07:28:29.786Z,98416.75
2018-08-30T07:33:24.141Z,98429.19
2018-08-30T07:38:25.738Z,98428.63
2018-08-30T07:43:20.406Z,98425.92
2018-08-30T07:48:18.434Z,98432.27
2018-08-30T07:53:21.903Z,98423.54
2018-08-30T07:58:16.401Z,98418.09
2018-08-30T08:03:10.666Z,98433.22
2018-08-30T08:08:03.953Z,98425.95
2018-08-30T08:12:57.969Z,98420.25
2018-08-30T08:17:55.344Z,98426.42
2018-08-30T08:22:49.152Z,98426.80
2018-08-30T08:27:43.401Z,98428.47
2018-08-30T08:32:37.320Z,98426.79
2018-08-30T08:37:31.469Z,98418.05
2018-08-30T08:42:24.973Z,98426.17
2018-08-30T08:47:20.270Z,98424.18
2018-08-30T08:52:15.043Z,98421.16
2018-08-30T08:57:08.200Z,98415.44
2018-08-30T09:02:02.597Z,98417.92
2018-08-30T09:07:00.920Z,98415.63
2018-08-30T09:11:54.910Z,98410.64
2018-08-30T09:16:48.286Z,98409.14
2018-08-30T09:21:44.091Z,98420.02
2018-08-30T09:26:37.900Z,98414.06
2018-08-30T09:31:32.023Z,98408.30
2018-08-30T09:36:25.497Z,98418.20
2018-08-30T09:41:21.612Z,98419.26
2018-08-30T09:46:15.967Z,98414.42
2018-08-30T09:51:10.144Z,98402.31
2018-08-30T09:56:03.746Z,98413.59
2018-08-30T10:01:02.697Z,98405.84
2018-08-30T10:05:56.676Z,98401.84
2018-08-30T10:10:50.650Z,98397.94
2018-08-30T10:15:46.065Z,98406.02
2018-08-30T10:20:39.756Z,98397.14
2018-08-30T10:25:33.220Z,98398.30
2018-08-30T10:30:26.467Z,98389.36
2018-08-30T10:35:22.499Z,98384.93
2018-08-30T10:40:16.324Z,98386.09
2018-08-30T10:45:10.208Z,98386.44
2018-08-30T10:50:03.546Z,98374.51
2018-08-30T10:54:56.819Z,98373.64
2018-08-30T10:59:50.906Z,98376.14
2018-08-30T11:04:44.167Z,98372.80
2018-08-30T11:09:37.136Z,98367.71
2018-08-30T11:14:30.431Z,98361.98
2018-08-30T11:19:23.838Z,98355.99
2018-08-30T11:24:19.238Z,98359.05
2018-08-30T11:29:13.316Z,98360.53
2018-08-30T11:34:06.772Z,98353.02
2018-08-30T11:39:00.270Z,98353.80
2018-08-30T11:43:53.706Z,98347.49
2018-08-30T11:48:47.459Z,98349.55
2018-08-30T11:53:40.778Z,98338.05
2018-08-30T11:58:35.097Z,98337.86
2018-08-30T12:03:28.271Z,98333.03
2018-08-30T12:08:22.286Z,98326.86
2018-08-30T12:13:15.492Z,98329.81
2018-08-30T12:18:08.717Z,98335.77
2018-08-30T12:23:01.811Z,98335.31
2018-08-30T12:27:55.436Z,98326.88
2018-08-30T12:32:48.584Z,98325.98
2018-08-30T12:37:42.976Z,98317.96
2018-08-30T12:42:36.144Z,98321.35
2018-08-30T12:47:29.322Z,98322.09
2018-08-30T12:52:22.637Z,98320.20
2018-08-30T12:57:15.900Z,98320.12
2018-08-30T13:02:09.726Z,98319.13
2018-08-30T13:07:03.254Z,98327.84
2018-08-30T13:11:58.693Z,98322.80
2018-08-30T13:16:51.483Z,98321.84
2018-08-30T13:21:44.705Z,98325.50
2018-08-30T13:26:38.205Z,98327.48
2018-08-30T13:31:39.263Z,98318.36
2018-08-30T13:36:34.840Z,98314.53
2018-08-30T13:41:28.537Z,98330.98
2018-08-30T13:46:23.217Z,98326.00
2018-08-30T13:51:17.574Z,98335.81
2018-08-30T13:56:14.475Z,98331.84
2018-08-30T14:01:08.402Z,98331.84
2018-08-30T14:06:01.123Z,98344.51
2018-08-30T14:10:54.227Z,98336.46
2018-08-30T14:15:47.096Z,98336.83
2018-08-30T14:20:40.412Z,98342.66
2018-08-30T14:25:33.491Z,98343.97
2018-08-30T14:30:26.494Z,98335.62
2018-08-30T14:35:19.492Z,98335.19
2018-08-30T14:40:12.674Z,98338.97
2018-08-30T14:45:06.133Z,98331.52
2018-08-30T14:49:59.295Z,98336.72
2018-08-30T14:54:52.555Z,98345.16
2018-08-30T14:59:45.698Z,98342.52
2018-08-30T15:04:39.066Z,98331.95
2018-08-30T15:09:32.165Z,98338.02
2018-08-30T15:14:25.461Z,98333.95
2018-08-30T15:19:18.718Z,98330.73
2018-08-30T15:24:11.899Z,98335.48
2018-08-30T15:29:05.097Z,98341.36
2018-08-30T15:33:58.160Z,98341.61
2018-08-30T15:38:51.240Z,98344.55
2018-08-30T15:43:44.442Z,98344.16
2018-08-30T15:48:37.650Z,98342.80
2018-08-30T15:53:30.859Z,98336.73
2018-08-30T15:58:25.158Z,98333.70
2018-08-30T16:03:18.239Z,98336.48
2018-08-30T16:08:11.258Z,98343.05
2018-08-30T16:13:04.716Z,98339.55
2018-08-30T16:17:57.829Z,98344.06
2018-08-30T16:23:15.692Z,98337.98
2018-08-30T16:28:08.891Z,98355.83
2018-08-30T16:33:02.076Z,98356.67
2018-08-30T16:37:55.876Z,98355.89
2018-08-30T16:42:49.155Z,98371.22
2018-08-30T16:47:42.224Z,98372.64
2018-08-30T16:52:36.297Z,98372.08
2018-08-30T16:57:32.779Z,98364.16
2018-08-30T17:02:25.933Z,98380.24
2018-08-30T17:07:19.264Z,98377.67
2018-08-30T17:12:12.579Z,98376.06
2018-08-30T17:17:05.764Z,98379.39
2018-08-30T17:21:59.008Z,98383.70
2018-08-30T17:26:52.236Z,98387.25
2018-08-30T17:31:45.357Z,98391.89
2018-08-30T17:36:38.581Z,98396.16
2018-08-30T17:41:31.706Z,98404.44
2018-08-30T17:46:24.779Z,98407.73
2018-08-30T17:51:18.140Z,98411.00
2018-08-30T17:56:12.284Z,98420.95
2018-08-30T18:01:05.692Z,98435.92
2018-08-30T18:05:58.796Z,98443.34
2018-08-30T18:10:51.806Z,98461.02
2018-08-30T18:15:45.451Z,98474.13
2018-08-30T18:20:38.647Z,98482.06
2018-08-30T18:25:32.030Z,98498.81
2018-08-30T18:30:25.479Z,98498.11
2018-08-30T18:35:18.559Z,98503.35
2018-08-30T18:40:12.153Z,98504.82
2018-08-30T18:45:05.431Z,98507.77
2018-08-30T18:49:58.647Z,98507.13
2018-08-30T18:54:51.793Z,98506.05
2018-08-30T18:59:44.839Z,98498.50
2018-08-30T19:04:38.302Z,98505.36
2018-08-30T19:09:31.542Z,98507.59
2018-08-30T19:14:24.659Z,98525.43
2018-08-30T19:19:19.915Z,98523.02
2018-08-30T19:24:18.637Z,98526.30
2018-08-30T19:29:11.842Z,98525.29
2018-08-30T19:34:06.199Z,98531.17
2018-08-30T19:38:59.907Z,98528.27
2018-08-30T19:43:53.757Z,98532.80
2018-08-30T19:48:47.545Z,98533.83
2018-08-30T19:53:42.029Z,98531.29
2018-08-30T19:58:35.765Z,98534.91
2018-08-30T20:03:28.827Z,98535.01
2018-08-30T20:08:22.619Z,98531.88
2018-08-30T20:13:16.124Z,98523.44
2018-08-30T20:18:09.108Z,98531.48
2018-08-30T20:23:02.342Z,98526.05
2018-08-30T20:27:55.628Z,98530.92
2018-08-30T20:32:48.875Z,98538.58
2018-08-30T20:37:41.828Z,98540.98
2018-08-30T20:42:35.446Z,98536.30
2018-08-30T20:47:28.940Z,98539.48
2018-08-30T20:52:22.244Z,98537.50
2018-08-30T20:57:15.325Z,98538.13
2018-08-30T21:02:09.336Z,98539.01
2018-08-30T21:07:02.565Z,98546.75
2018-08-30T21:11:56.510Z,98547.25
2018-08-30T21:16:49.738Z,98531.66
2018-08-30T21:21:42.869Z,98533.43
2018-08-30T21:26:36.994Z,98537.62
2018-08-30T21:31:30.127Z,98530.57
2018-08-30T21:36:23.198Z,98537.02
2018-08-30T21:41:16.467Z,98535.41
2018-08-30T21:46:10.308Z,98533.15
2018-08-30T21:51:04.315Z,98530.77
2018-08-30T21:55:57.919Z,98527.75
2018-08-30T22:00:51.570Z,98531.78
2018-08-30T22:05:45.303Z,98533.28
2018-08-30T22:10:38.382Z,98539.91
2018-08-30T22:15:32.059Z,98540.38
2018-08-30T22:20:25.231Z,98536.84
2018-08-30T22:25:18.429Z,98536.52
2018-08-30T22:30:11.675Z,98536.78
2018-08-30T22:35:05.058Z,98540.44
2018-08-30T22:39:59.267Z,98545.80
2018-08-30T22:44:52.387Z,98544.83
2018-08-30T22:49:46.056Z,98545.08
2018-08-30T22:54:39.101Z,98542.16
2018-08-30T22:59:32.268Z,98546.88
2018-08-30T23:04:25.377Z,98549.61
2018-08-30T23:09:19.866Z,98540.08
2018-08-30T23:14:12.812Z,98532.08
2018-08-30T23:19:06.069Z,98527.75
2018-08-30T23:23:59.158Z,98528.76
2018-08-30T23:28:52.593Z,98523.21
2018-08-30T23:33:45.734Z,98523.61
2018-08-30T23:38:38.861Z,98519.84
2018-08-30T23:43:32.943Z,98524.61
2018-08-30T23:48:26.062Z,98520.23
2018-08-30T23:53:19.054Z,98511.08
2018-08-30T23:58:23.191Z,98511.22
